createdAt,value
2023-01-22T00:00:20.825Z,99861.88
2023-01-22T00:02:52.549Z,99863.47
2023-01-22T00:05:24.273Z,99866.16
2023-01-22T00:07:56.150Z,99866.06
2023-01-22T00:10:27.793Z,99867.69
2023-01-22T00:12:59.776Z,99865.41
2023-01-22T00:15:31.498Z,99864.47
2023-01-22T00:18:03.243Z,99866.06
2023-01-22T00:20:34.948Z,99870.44
2023-01-22T00:23:06.961Z,99865.31
2023-01-22T00:25:38.581Z,99871.28
2023-01-22T00:28:14.228Z,99869.16
2023-01-22T00:30:45.920Z,99863.22
2023-01-22T00:33:21.592Z,99868.22
2023-01-22T00:35:53.422Z,99875.53
2023-01-22T00:38:26.578Z,99877.31
2023-01-22T00:41:02.305Z,99884.09
2023-01-22T00:43:38.554Z,99881.88
2023-01-22T00:46:12.711Z,99882.81
2023-01-22T00:48:49.684Z,99894.28
2023-01-22T00:51:21.385Z,99884.03
2023-01-22T00:53:53.109Z,99891.41
2023-01-22T00:56:24.822Z,99894.41
2023-01-22T00:58:58.563Z,99900.78
2023-01-22T01:01:30.410Z,99896.06
2023-01-22T01:04:02.939Z,99899.31
2023-01-22T01:06:34.660Z,99905.22
2023-01-22T01:09:06.498Z,99904.22
2023-01-22T01:11:40.787Z,99904.41
2023-01-22T01:14:13.588Z,99908.78
2023-01-22T01:16:46.171Z,99902.63
2023-01-22T01:19:20.193Z,99913.59
2023-01-22T01:21:55.503Z,99915.06
2023-01-22T01:24:28.321Z,99909.38
2023-01-22T01:27:00.099Z,99905.72
2023-01-22T01:29:46.800Z,99921.03
2023-01-22T01:32:18.562Z,99919.66
2023-01-22T01:34:52.833Z,99922.41
2023-01-22T01:37:27.503Z,99922.28
2023-01-22T01:40:00.118Z,99918.91
2023-01-22T01:42:34.995Z,99919.63
2023-01-22T01:45:18.759Z,99917.97
2023-01-22T01:47:54.828Z,99924.03
2023-01-22T01:50:28.057Z,99919.53
2023-01-22T01:53:01.290Z,99923.63
2023-01-22T01:55:35.481Z,99928.00
2023-01-22T01:58:11.261Z,99922.59
2023-01-22T02:00:44.647Z,99917.47
2023-01-22T02:03:16.907Z,99916.53
2023-01-22T02:05:48.579Z,99917.19
2023-01-22T02:08:25.295Z,99926.78
2023-01-22T02:10:57.225Z,99925.13
2023-01-22T02:13:32.459Z,99941.69
2023-01-22T02:16:05.997Z,99935.94
2023-01-22T02:18:38.510Z,99929.63
2023-01-22T02:21:39.165Z,99946.56
2023-01-22T02:24:16.884Z,99945.72
2023-01-22T02:26:48.466Z,99949.88
2023-01-22T02:29:27.969Z,99947.78
2023-01-22T02:31:59.658Z,99940.16
2023-01-22T02:34:32.055Z,99951.06
2023-01-22T02:37:05.343Z,99944.47
2023-01-22T02:39:37.339Z,99947.19
2023-01-22T02:42:10.587Z,99954.69
2023-01-22T02:44:43.399Z,99957.47
2023-01-22T02:47:15.077Z,99958.31
2023-01-22T02:49:46.810Z,99956.69
2023-01-22T02:52:27.296Z,99966.00
2023-01-22T02:54:59.120Z,99961.66
2023-01-22T02:57:31.447Z,99963.94
2023-01-22T03:00:04.420Z,99959.19
2023-01-22T03:02:36.649Z,99974.81
2023-01-22T03:05:08.470Z,99966.88
2023-01-22T03:07:47.537Z,99970.97
2023-01-22T03:10:21.387Z,99969.94
2023-01-22T03:13:11.857Z,99978.97
2023-01-22T03:16:04.502Z,99978.66
2023-01-22T03:18:59.606Z,99970.00
2023-01-22T03:21:31.355Z,99974.59
2023-01-22T03:24:03.065Z,99978.28
2023-01-22T03:26:38.501Z,99986.38
2023-01-22T03:29:10.325Z,99984.72
2023-01-22T03:31:48.207Z,99986.94
2023-01-22T03:34:21.608Z,99990.75
2023-01-22T03:36:53.396Z,99989.91
2023-01-22T03:39:28.907Z,99994.03
2023-01-22T03:42:00.823Z,99998.72
2023-01-22T03:44:32.806Z,99993.81
2023-01-22T03:47:04.553Z,99990.63
2023-01-22T03:49:39.328Z,99991.28
2023-01-22T03:52:11.224Z,99998.00
2023-01-22T03:54:44.809Z,99993.25
2023-01-22T03:57:17.048Z,99988.41
2023-01-22T03:59:48.833Z,99992.75
2023-01-22T04:02:21.775Z,99995.47
2023-01-22T04:05:09.329Z,99998.25
2023-01-22T04:07:42.834Z,99991.00
2023-01-22T04:10:16.785Z,99992.19
2023-01-22T04:12:49.630Z,99998.03
2023-01-22T04:15:24.975Z,99993.59
2023-01-22T04:17:58.879Z,99996.28
2023-01-22T04:20:49.451Z,100002.94
2023-01-22T04:23:35.807Z,99994.75
2023-01-22T04:26:07.751Z,99993.09
2023-01-22T04:28:39.543Z,99993.50
2023-01-22T04:31:11.557Z,99990.63
2023-01-22T04:33:56.375Z,99987.16
2023-01-22T04:36:32.970Z,99983.56
2023-01-22T04:39:05.109Z,99988.16
2023-01-22T04:41:37.706Z,99992.75
2023-01-22T04:44:09.466Z,99996.66
2023-01-22T04:46:41.226Z,99992.97
2023-01-22T04:49:12.897Z,99996.13
2023-01-22T04:51:45.597Z,100003.63
2023-01-22T04:54:17.640Z,99996.66
2023-01-22T04:56:53.213Z,99994.81
2023-01-22T04:59:25.162Z,99992.28
2023-01-22T05:01:56.920Z,99998.72
2023-01-22T05:04:28.870Z,100000.19
2023-01-22T05:07:01.186Z,100006.69
2023-01-22T05:09:33.035Z,100011.06
2023-01-22T05:12:06.312Z,100012.66
2023-01-22T05:14:44.488Z,100017.56
2023-01-22T05:17:16.439Z,100019.56
2023-01-22T05:19:48.862Z,100020.13
2023-01-22T05:22:25.661Z,100028.78
2023-01-22T05:25:00.604Z,100024.59
2023-01-22T05:27:35.488Z,100030.44
2023-01-22T05:30:13.589Z,100030.16
2023-01-22T05:33:05.636Z,100032.03
2023-01-22T05:35:37.271Z,100031.94
2023-01-22T05:38:10.002Z,100034.34
2023-01-22T05:40:43.084Z,100040.59
2023-01-22T05:43:14.902Z,100033.50
2023-01-22T05:45:50.948Z,100042.44
2023-01-22T05:48:47.268Z,100047.75
2023-01-22T05:51:34.722Z,100051.25
2023-01-22T05:54:06.716Z,100052.34
2023-01-22T05:56:41.459Z,100050.88
2023-01-22T05:59:13.441Z,100053.66
2023-01-22T06:01:46.937Z,100049.94
2023-01-22T06:04:20.150Z,100049.34
2023-01-22T06:06:51.878Z,100041.81
2023-01-22T06:09:25.847Z,100049.13
2023-01-22T06:12:00.756Z,100042.97
2023-01-22T06:14:32.495Z,100052.78
2023-01-22T06:17:05.534Z,100048.50
2023-01-22T06:19:46.641Z,100048.59
2023-01-22T06:22:22.013Z,100054.84
2023-01-22T06:25:03.341Z,100055.75
2023-01-22T06:27:53.112Z,100057.81
2023-01-22T06:30:24.830Z,100064.59
2023-01-22T06:32:58.076Z,100074.25
2023-01-22T06:35:29.853Z,100083.22
2023-01-22T06:38:01.827Z,100084.88
2023-01-22T06:40:37.091Z,100085.81
2023-01-22T06:43:10.928Z,100084.81
2023-01-22T06:45:43.572Z,100079.38
2023-01-22T06:48:16.512Z,100084.41
2023-01-22T06:50:51.493Z,100081.50
2023-01-22T06:53:23.162Z,100093.41
2023-01-22T06:55:55.284Z,100088.09
2023-01-22T06:58:27.880Z,100095.84
2023-01-22T07:01:04.924Z,100093.31
2023-01-22T07:03:36.672Z,100087.84
2023-01-22T07:06:09.887Z,100086.34
2023-01-22T07:08:41.528Z,100090.72
2023-01-22T07:11:14.551Z,100094.16
2023-01-22T07:13:46.277Z,100096.78
2023-01-22T07:16:18.820Z,100087.19
2023-01-22T07:18:50.526Z,100093.25
2023-01-22T07:21:29.146Z,100086.47
2023-01-22T07:24:03.849Z,100095.50
2023-01-22T07:26:36.323Z,100098.91
2023-01-22T07:29:11.051Z,100098.13
2023-01-22T07:31:48.687Z,100102.38
2023-01-22T07:34:21.362Z,100098.13
2023-01-22T07:36:53.226Z,100099.97
2023-01-22T07:39:24.928Z,100108.63
2023-01-22T07:42:01.190Z,100108.41
2023-01-22T07:44:37.014Z,100114.38
2023-01-22T07:47:09.154Z,100117.34
2023-01-22T07:49:40.850Z,100116.44
2023-01-22T07:52:13.370Z,100136.41
2023-01-22T07:54:45.082Z,100133.34
2023-01-22T07:57:19.654Z,100142.84
2023-01-22T07:59:51.308Z,100140.94
2023-01-22T08:02:23.030Z,100143.94
2023-01-22T08:04:54.698Z,100142.81
2023-01-22T08:07:27.778Z,100144.69
2023-01-22T08:09:59.704Z,100155.94
2023-01-22T08:12:31.454Z,100148.13
2023-01-22T08:15:03.458Z,100152.69
2023-01-22T08:17:36.142Z,100148.78
2023-01-22T08:20:09.487Z,100149.16
2023-01-22T08:22:41.345Z,100147.47
2023-01-22T08:25:13.687Z,100142.47
2023-01-22T08:27:45.366Z,100151.84
2023-01-22T08:30:18.389Z,100153.88
2023-01-22T08:32:51.457Z,100150.34
2023-01-22T08:35:24.482Z,100156.69
2023-01-22T08:38:00.093Z,100153.59
2023-01-22T08:40:31.832Z,100155.47
2023-01-22T08:43:03.524Z,100166.69
2023-01-22T08:45:35.209Z,100170.63
2023-01-22T08:48:07.111Z,100164.84
2023-01-22T08:50:38.771Z,100169.63
2023-01-22T08:53:13.658Z,100165.25
2023-01-22T08:55:51.340Z,100181.44
2023-01-22T08:58:26.399Z,100179.19
2023-01-22T09:00:58.323Z,100186.81
2023-01-22T09:03:30.042Z,100186.28
2023-01-22T09:06:01.730Z,100194.00
2023-01-22T09:08:33.370Z,100204.59
2023-01-22T09:11:05.961Z,100205.06
2023-01-22T09:13:39.737Z,100207.84
2023-01-22T09:16:12.360Z,100207.75
2023-01-22T09:18:45.355Z,100199.00
2023-01-22T09:21:17.124Z,100193.63
2023-01-22T09:23:48.908Z,100191.88
2023-01-22T09:26:21.259Z,100191.19
2023-01-22T09:28:53.884Z,100192.50
2023-01-22T09:31:26.056Z,100191.22
2023-01-22T09:33:57.838Z,100200.50
2023-01-22T09:36:30.400Z,100209.06
2023-01-22T09:39:02.918Z,100203.75
2023-01-22T09:41:38.616Z,100204.97
2023-01-22T09:44:23.635Z,100204.69
2023-01-22T09:47:04.831Z,100203.38
2023-01-22T09:50:00.780Z,100208.59
2023-01-22T09:52:36.811Z,100213.53
2023-01-22T09:55:13.300Z,100208.69
2023-01-22T09:57:47.624Z,100211.75
2023-01-22T10:00:30.059Z,100218.56
2023-01-22T10:03:07.465Z,100212.00
2023-01-22T10:05:43.249Z,100214.59
2023-01-22T10:08:45.103Z,100217.88
2023-01-22T10:11:17.499Z,100218.81
2023-01-22T10:13:55.260Z,100214.72
2023-01-22T10:16:27.109Z,100219.19
2023-01-22T10:19:00.603Z,100219.09
2023-01-22T10:21:37.523Z,100225.63
2023-01-22T10:24:12.395Z,100222.63
2023-01-22T10:26:52.813Z,100218.25
2023-01-22T10:29:27.459Z,100209.59
2023-01-22T10:32:03.255Z,100204.69
2023-01-22T10:34:36.588Z,100216.13
2023-01-22T10:37:15.495Z,100219.75
2023-01-22T10:39:48.339Z,100214.19
2023-01-22T10:42:25.960Z,100212.66
2023-01-22T10:45:11.475Z,100198.13
2023-01-22T10:47:43.177Z,100191.97
2023-01-22T10:50:16.613Z,100190.19
2023-01-22T10:52:54.891Z,100184.06
2023-01-22T10:55:31.071Z,100202.41
2023-01-22T10:58:07.798Z,100190.00
2023-01-22T11:00:51.510Z,100181.25
2023-01-22T11:03:39.289Z,100180.13
2023-01-22T11:06:17.150Z,100165.75
2023-01-22T11:08:56.886Z,100173.47
2023-01-22T11:11:35.934Z,100175.31
2023-01-22T11:14:15.640Z,100177.25
2023-01-22T11:16:51.152Z,100172.41
2023-01-22T11:19:36.918Z,100169.03
2023-01-22T11:22:22.351Z,100174.94
2023-01-22T11:24:54.202Z,100173.63
2023-01-22T11:27:44.022Z,100185.66
2023-01-22T11:30:43.005Z,100178.75
2023-01-22T11:33:33.179Z,100178.53
2023-01-22T11:36:19.603Z,100176.34
2023-01-22T11:39:00.961Z,100168.91
2023-01-22T11:42:10.192Z,100152.88
2023-01-22T11:45:20.072Z,100139.34
2023-01-22T11:47:54.353Z,100140.81
2023-01-22T11:50:28.200Z,100132.19
2023-01-22T11:53:47.538Z,100137.00
2023-01-22T11:56:49.886Z,100133.78
2023-01-22T12:00:06.338Z,100131.72
2023-01-22T12:02:46.760Z,100131.72
2023-01-22T12:05:36.855Z,100133.66
2023-01-22T12:08:32.442Z,100142.44
2023-01-22T12:11:22.793Z,100146.91
2023-01-22T12:14:10.648Z,100152.19
2023-01-22T12:16:57.194Z,100161.16
2023-01-22T12:19:58.904Z,100160.00
2023-01-22T12:22:50.373Z,100159.75
2023-01-22T12:25:45.124Z,100175.16
2023-01-22T12:28:21.461Z,100166.53
2023-01-22T12:31:27.022Z,100168.28
2023-01-22T12:34:04.065Z,100174.31
2023-01-22T12:36:36.748Z,100183.84
2023-01-22T12:39:15.383Z,100177.94
2023-01-22T12:42:05.748Z,100180.00
2023-01-22T12:44:50.784Z,100178.41
2023-01-22T12:47:46.759Z,100171.50
2023-01-22T12:50:21.909Z,100175.94
2023-01-22T12:53:05.407Z,100179.28
2023-01-22T12:55:44.355Z,100187.00
2023-01-22T12:58:25.850Z,100187.31
2023-01-22T13:01:09.444Z,100181.38
2023-01-22T13:03:42.135Z,100190.75
2023-01-22T13:06:40.918Z,100191.34
2023-01-22T13:09:25.083Z,100190.63
2023-01-22T13:12:08.376Z,100193.72
2023-01-22T13:14:42.881Z,100194.53
2023-01-22T13:17:21.446Z,100196.94
2023-01-22T13:19:54.218Z,100201.53
2023-01-22T13:22:28.292Z,100201.16
2023-01-22T13:24:59.963Z,100209.81
2023-01-22T13:27:36.357Z,100223.47
2023-01-22T13:30:16.270Z,100218.81
2023-01-22T13:32:48.200Z,100217.72
2023-01-22T13:35:20.648Z,100213.16
2023-01-22T13:37:52.580Z,100217.78
2023-01-22T13:40:27.261Z,100214.47
2023-01-22T13:43:00.314Z,100219.69
2023-01-22T13:45:33.437Z,100221.06
2023-01-22T13:48:15.737Z,100217.41
2023-01-22T13:51:00.867Z,100214.94
2023-01-22T13:53:40.810Z,100208.50
2023-01-22T13:56:18.401Z,100219.69
2023-01-22T13:58:50.585Z,100217.34
2023-01-22T14:01:31.449Z,100212.78
2023-01-22T14:04:23.109Z,100214.19
2023-01-22T14:06:55.058Z,100215.47
2023-01-22T14:09:32.962Z,100214.44
2023-01-22T14:12:17.160Z,100218.81
2023-01-22T14:14:49.464Z,100214.94
2023-01-22T14:17:32.262Z,100208.03
2023-01-22T14:20:05.648Z,100221.16
2023-01-22T14:22:37.334Z,100223.69
2023-01-22T14:25:12.818Z,100219.75
2023-01-22T14:27:47.319Z,100222.84
2023-01-22T14:30:21.751Z,100218.56
2023-01-22T14:32:53.671Z,100219.88
2023-01-22T14:35:27.145Z,100225.50
2023-01-22T14:37:58.854Z,100225.72
2023-01-22T14:40:31.070Z,100230.28
2023-01-22T14:43:03.580Z,100238.69
2023-01-22T14:45:35.945Z,100241.22
2023-01-22T14:48:07.769Z,100245.03
2023-01-22T14:50:40.675Z,100248.31
2023-01-22T14:53:13.618Z,100251.03
2023-01-22T14:55:48.350Z,100259.69
2023-01-22T14:58:20.061Z,100264.53
2023-01-22T15:00:51.777Z,100275.03
2023-01-22T15:03:24.091Z,100275.94
2023-01-22T15:05:55.817Z,100275.22
2023-01-22T15:08:27.438Z,100287.59
2023-01-22T15:11:00.692Z,100283.94
2023-01-22T15:13:35.482Z,100285.22
2023-01-22T15:16:08.267Z,100280.84
2023-01-22T15:18:40.983Z,100281.25
2023-01-22T15:21:12.669Z,100285.19
2023-01-22T15:23:44.275Z,100291.50
2023-01-22T15:26:35.515Z,100292.16
2023-01-22T15:29:10.600Z,100291.97
2023-01-22T15:31:43.044Z,100295.50
2023-01-22T15:34:15.686Z,100297.94
2023-01-22T15:36:47.476Z,100303.88
2023-01-22T15:39:19.274Z,100310.38
2023-01-22T15:41:50.936Z,100308.34
2023-01-22T15:44:22.666Z,100316.44
2023-01-22T15:46:56.129Z,100317.56
2023-01-22T15:49:27.909Z,100313.34
2023-01-22T15:51:59.692Z,100316.53
2023-01-22T15:54:31.372Z,100318.28
2023-01-22T15:57:03.179Z,100314.56
2023-01-22T15:59:37.905Z,100319.69
2023-01-22T16:02:10.962Z,100320.06
2023-01-22T16:04:42.695Z,100323.84
2023-01-22T16:07:14.498Z,100324.63
2023-01-22T16:09:46.245Z,100324.06
2023-01-22T16:12:18.570Z,100318.84
2023-01-22T16:14:50.300Z,100315.19
2023-01-22T16:17:22.689Z,100325.25
2023-01-22T16:19:54.373Z,100326.78
2023-01-22T16:22:26.062Z,100329.75
2023-01-22T16:24:57.734Z,100330.09
2023-01-22T16:27:29.519Z,100335.41
2023-01-22T16:30:01.263Z,100336.81
2023-01-22T16:32:34.475Z,100340.63
2023-01-22T16:35:06.588Z,100342.41
2023-01-22T16:37:38.606Z,100342.22
2023-01-22T16:40:12.007Z,100346.41
2023-01-22T16:42:59.469Z,100345.75
2023-01-22T16:45:34.883Z,100346.38
2023-01-22T16:48:07.455Z,100360.31
2023-01-22T16:50:39.172Z,100353.91
2023-01-22T16:53:10.934Z,100351.03
2023-01-22T16:55:42.614Z,100355.16
2023-01-22T16:58:14.285Z,100356.66
2023-01-22T17:00:47.408Z,100364.75
2023-01-22T17:03:19.149Z,100361.94
2023-01-22T17:05:54.860Z,100362.91
2023-01-22T17:08:27.164Z,100363.25
2023-01-22T17:10:58.877Z,100371.03
2023-01-22T17:13:31.966Z,100379.94
2023-01-22T17:16:04.595Z,100383.97
2023-01-22T17:18:37.804Z,100387.63
2023-01-22T17:21:13.016Z,100396.78
2023-01-22T17:23:45.926Z,100392.03
2023-01-22T17:26:17.943Z,100397.00
2023-01-22T17:28:50.050Z,100402.09
2023-01-22T17:31:24.093Z,100404.22
2023-01-22T17:33:55.982Z,100414.47
2023-01-22T17:36:28.499Z,100416.91
2023-01-22T17:39:01.732Z,100407.63
2023-01-22T17:41:34.015Z,100418.97
2023-01-22T17:44:05.781Z,100420.31
2023-01-22T17:46:37.962Z,100431.59
2023-01-22T17:49:12.356Z,100427.47
2023-01-22T17:51:44.095Z,100432.78
2023-01-22T17:54:16.262Z,100441.44
2023-01-22T17:56:51.037Z,100446.47
2023-01-22T17:59:23.817Z,100445.63
2023-01-22T18:01:55.559Z,100450.78
2023-01-22T18:04:30.020Z,100447.13
2023-01-22T18:07:03.878Z,100449.81
2023-01-22T18:09:36.428Z,100452.78
2023-01-22T18:12:08.836Z,100457.13
2023-01-22T18:14:40.525Z,100466.47
2023-01-22T18:17:12.230Z,100466.41
2023-01-22T18:19:43.941Z,100464.78
2023-01-22T18:22:15.673Z,100461.19
2023-01-22T18:24:47.413Z,100452.91
2023-01-22T18:27:19.141Z,100462.25
2023-01-22T18:29:50.850Z,100466.63
2023-01-22T18:32:22.539Z,100466.44
2023-01-22T18:34:57.031Z,100479.19
2023-01-22T18:37:28.724Z,100470.31
2023-01-22T18:40:00.874Z,100467.59
2023-01-22T18:42:32.719Z,100476.59
2023-01-22T18:45:04.964Z,100469.81
2023-01-22T18:47:39.209Z,100474.75
2023-01-22T18:50:18.005Z,100470.31
2023-01-22T18:52:49.855Z,100470.13
2023-01-22T18:55:22.315Z,100475.16
2023-01-22T18:57:57.007Z,100480.38
2023-01-22T19:00:28.821Z,100483.41
2023-01-22T19:03:01.204Z,100485.03
2023-01-22T19:05:35.525Z,100487.47
2023-01-22T19:08:07.212Z,100488.25
2023-01-22T19:10:38.912Z,100491.41
2023-01-22T19:13:12.117Z,100490.84
2023-01-22T19:15:45.209Z,100497.25
2023-01-22T19:18:16.886Z,100497.25
2023-01-22T19:20:48.700Z,100495.41
2023-01-22T19:23:21.138Z,100498.72
2023-01-22T19:25:57.064Z,100499.75
2023-01-22T19:28:28.725Z,100500.34
2023-01-22T19:31:00.537Z,100504.28
2023-01-22T19:33:34.647Z,100511.50
2023-01-22T19:36:06.862Z,100513.53
2023-01-22T19:38:39.881Z,100510.59
2023-01-22T19:41:11.832Z,100513.84
2023-01-22T19:43:46.925Z,100522.44
2023-01-22T19:46:18.932Z,100515.03
2023-01-22T19:48:53.626Z,100529.09
2023-01-22T19:51:27.674Z,100522.69
2023-01-22T19:54:00.802Z,100519.91
2023-01-22T19:56:35.603Z,100527.84
2023-01-22T19:59:08.601Z,100527.91
2023-01-22T20:01:41.550Z,100527.06
2023-01-22T20:04:25.318Z,100534.69
2023-01-22T20:07:00.702Z,100544.72
2023-01-22T20:09:34.754Z,100542.75
2023-01-22T20:12:08.600Z,100549.03
2023-01-22T20:14:43.283Z,100556.97
2023-01-22T20:17:18.036Z,100550.97
2023-01-22T20:19:49.708Z,100552.34
2023-01-22T20:22:21.488Z,100558.31
2023-01-22T20:24:54.122Z,100567.47
2023-01-22T20:27:25.939Z,100574.78
2023-01-22T20:29:57.664Z,100573.44
2023-01-22T20:32:30.404Z,100579.22
2023-01-22T20:35:02.109Z,100575.63
2023-01-22T20:37:33.964Z,100578.31
2023-01-22T20:40:06.157Z,100589.06
2023-01-22T20:42:38.479Z,100590.94
2023-01-22T20:45:10.643Z,100598.22
2023-01-22T20:47:42.798Z,100590.66
2023-01-22T20:50:14.515Z,100596.69
2023-01-22T20:52:47.044Z,100596.47
2023-01-22T20:55:19.824Z,100602.59
2023-01-22T20:57:51.842Z,100605.53
2023-01-22T21:00:24.063Z,100612.50
2023-01-22T21:02:55.821Z,100610.50
2023-01-22T21:05:28.729Z,100611.78
2023-01-22T21:08:01.847Z,100609.63
2023-01-22T21:10:37.509Z,100610.47
2023-01-22T21:13:09.208Z,100611.41
2023-01-22T21:15:46.819Z,100611.00
2023-01-22T21:18:19.009Z,100614.03
2023-01-22T21:20:50.758Z,100620.56
2023-01-22T21:23:22.436Z,100627.16
2023-01-22T21:25:54.082Z,100620.09
2023-01-22T21:28:25.775Z,100621.69
2023-01-22T21:31:05.926Z,100626.66
2023-01-22T21:33:38.735Z,100629.66
2023-01-22T21:36:12.074Z,100632.19
2023-01-22T21:38:48.303Z,100634.16
2023-01-22T21:41:20.042Z,100639.25
2023-01-22T21:44:10.645Z,100635.66
2023-01-22T21:46:46.905Z,100640.69
2023-01-22T21:49:23.424Z,100643.56
2023-01-22T21:52:00.382Z,100641.94
2023-01-22T21:54:38.630Z,100646.22
2023-01-22T21:57:16.922Z,100646.75
2023-01-22T21:59:48.618Z,100640.63
2023-01-22T22:02:20.619Z,100646.75
2023-01-22T22:04:53.491Z,100644.59
2023-01-22T22:07:27.097Z,100650.66
2023-01-22T22:09:58.835Z,100645.19
2023-01-22T22:12:33.369Z,100650.09
2023-01-22T22:15:05.899Z,100656.56
2023-01-22T22:17:38.544Z,100667.66
2023-01-22T22:20:13.114Z,100672.53
2023-01-22T22:22:45.939Z,100666.66
2023-01-22T22:25:17.803Z,100665.06
2023-01-22T22:27:50.755Z,100670.09
2023-01-22T22:30:22.533Z,100673.31
2023-01-22T22:32:58.836Z,100673.06
2023-01-22T22:35:30.932Z,100673.06
2023-01-22T22:38:02.954Z,100677.31
2023-01-22T22:40:36.824Z,100693.03
2023-01-22T22:43:09.344Z,100690.13
2023-01-22T22:45:44.024Z,100685.31
2023-01-22T22:48:15.701Z,100683.41
2023-01-22T22:50:47.424Z,100683.88
2023-01-22T22:53:19.894Z,100690.56
2023-01-22T22:55:53.614Z,100686.78
2023-01-22T22:58:25.263Z,100689.38
2023-01-22T23:00:57.302Z,100685.03
2023-01-22T23:03:31.423Z,100688.88
2023-01-22T23:06:10.418Z,100682.63
2023-01-22T23:08:44.450Z,100671.78
2023-01-22T23:11:16.157Z,100673.97
2023-01-22T23:13:49.494Z,100692.81
2023-01-22T23:16:22.650Z,100685.75
2023-01-22T23:18:54.423Z,100695.25
2023-01-22T23:21:27.090Z,100699.19
2023-01-22T23:23:58.812Z,100704.66
2023-01-22T23:26:31.743Z,100701.44
2023-01-22T23:29:07.337Z,100702.38
2023-01-22T23:31:40.089Z,100710.78
2023-01-22T23:34:14.325Z,100709.09
2023-01-22T23:36:47.343Z,100712.47
2023-01-22T23:39:20.501Z,100713.06
2023-01-22T23:41:52.266Z,100716.25
2023-01-22T23:44:23.924Z,100711.56
2023-01-22T23:46:55.604Z,100716.53
2023-01-22T23:49:27.295Z,100733.50
2023-01-22T23:52:00.105Z,100731.22
2023-01-22T23:54:31.786Z,100724.25
2023-01-22T23:57:04.795Z,100736.50
2023-01-22T23:59:37.505Z,100735.66
